Time;durP1;ratioP1;P1;durP2;ratioP2;P2;SDS_P1;SDS_P2;PMS_P1;PMS_P2;Temp;Humidity;BMP_temperature;BMP_pressure;BME280_temperature;BME280_humidity;BME280_pressure;Samples;Min_cycle;Max_cycle;Signal;HPM_P1;HPM_P2
2023/02/19 00:01:25;;;;;;;1.50;0.80;;;11.40;99.90;;;;;;20771854;28;20385;-79
2023/02/19 00:11:29;;;;;;;2.30;1.00;;;11.30;99.90;;;;;;20852661;28;20123;-77
2023/02/19 00:21:31;;;;;;;4.45;1.63;;;11.20;99.90;;;;;;20875292;28;20049;-78
2023/02/19 00:31:33;;;;;;;;;;;11.10;99.90;;;;;;20853872;28;20029;-78
2023/02/19 00:41:34;;;;;;;4.80;1.93;;;11.00;99.90;;;;;;20839208;28;19921;-78
2023/02/19 00:51:36;;;;;;;4.07;2.37;;;10.80;99.90;;;;;;20873390;28;20029;-78
2023/02/19 01:01:37;;;;;;;2.45;1.90;;;10.50;99.90;;;;;;20878616;28;20034;-79
2023/02/19 01:11:38;;;;;;;3.07;1.70;;;10.50;99.90;;;;;;20854481;28;20488;-79
2023/02/19 01:21:39;;;;;;;4.00;2.73;;;10.40;99.90;;;;;;20830650;28;20121;-78
2023/02/19 01:31:41;;;;;;;3.28;2.22;;;10.20;99.90;;;;;;20870697;28;20483;-78
2023/02/19 01:41:42;;;;;;;4.95;2.03;;;10.20;99.90;;;;;;20842215;28;20041;-76
2023/02/19 01:51:45;;;;;;;;;;;10.20;99.90;;;;;;20837484;28;20468;-78
2023/02/19 02:01:46;;;;;;;;;;;10.00;99.90;;;;;;20837547;28;20379;-77
2023/02/19 02:11:50;;;;;;;3.70;2.30;;;9.80;99.90;;;;;;20827965;28;19948;-78
2023/02/19 02:22:00;;;;;;;2.78;2.13;;;9.70;99.90;;;;;;20878704;28;20029;-78
2023/02/19 02:32:11;;;;;;;2.90;1.83;;;9.50;99.90;;;;;;20810415;28;20030;-79
2023/02/19 02:42:27;;;;;;;2.53;2.10;;;9.60;99.90;;;;;;20869687;28;20400;-77
2023/02/19 03:02:59;;;;;;;2.15;1.83;;;9.50;99.90;;;;;;20846815;28;20095;-79
2023/02/19 03:33:55;;;;;;;3.40;2.03;;;9.40;99.90;;;;;;20836436;28;20033;-79
2023/02/19 03:44:23;;;;;;;3.40;2.00;;;9.40;99.90;;;;;;20866511;28;20037;-79
2023/02/19 03:54:37;;;;;;;5.10;2.58;;;9.40;99.90;;;;;;20913054;28;20039;-79
2023/02/19 04:05:04;;;;;;;3.78;2.13;;;9.40;99.90;;;;;;20888477;28;20025;-79
2023/02/19 04:15:21;;;;;;;3.35;2.10;;;9.30;99.90;;;;;;20832785;28;20032;-77
2023/02/19 04:25:25;;;;;;;3.40;2.28;;;9.30;99.90;;;;;;20928531;28;20041;-79
2023/02/19 04:35:25;;;;;;;5.80;2.85;;;9.00;99.90;;;;;;20875788;28;20500;-79
2023/02/19 04:45:26;;;;;;;5.13;2.73;;;8.70;99.90;;;;;;20846818;28;20081;-78
2023/02/19 04:55:27;;;;;;;6.50;3.00;;;8.70;99.90;;;;;;20823740;28;20203;-78
2023/02/19 05:05:28;;;;;;;4.10;2.90;;;8.60;99.90;;;;;;20842813;28;20037;-78
2023/02/19 05:15:28;;;;;;;4.43;2.87;;;8.50;99.90;;;;;;20868155;28;20043;-79
2023/02/19 05:25:29;;;;;;;3.67;2.60;;;8.40;99.90;;;;;;20922411;28;20029;-79
2023/02/19 05:35:30;;;;;;;4.20;2.53;;;8.50;99.90;;;;;;20888885;28;20568;-78
2023/02/19 05:45:31;;;;;;;5.20;2.43;;;8.60;99.90;;;;;;20877556;28;20037;-78
2023/02/19 05:55:35;;;;;;;;;;;8.60;99.90;;;;;;20894587;28;20036;-79
2023/02/19 06:05:36;;;;;;;3.45;2.40;;;8.70;99.90;;;;;;20888862;28;19912;-78
2023/02/19 06:15:37;;;;;;;;;;;8.70;99.90;;;;;;20860133;28;20033;-77
2023/02/19 06:25:38;;;;;;;4.13;2.38;;;8.80;99.90;;;;;;20883515;28;19959;-77
2023/02/19 06:35:39;;;;;;;4.47;2.57;;;8.90;99.90;;;;;;20879708;28;20052;-78
2023/02/19 06:45:40;;;;;;;3.93;2.70;;;8.90;99.90;;;;;;20852990;28;20025;-78
2023/02/19 06:55:41;;;;;;;4.90;2.90;;;8.90;99.90;;;;;;20830085;28;20033;-77
2023/02/19 07:05:42;;;;;;;5.77;3.73;;;8.80;99.90;;;;;;20789953;28;20547;-78
2023/02/19 07:15:43;;;;;;;4.63;3.13;;;8.70;99.90;;;;;;20814543;28;20651;-78
2023/02/19 07:25:44;;;;;;;3.90;2.63;;;8.60;99.90;;;;;;20835743;28;20036;-76
2023/02/19 07:35:49;;;;;;;2.90;2.03;;;8.50;99.90;;;;;;20839980;28;20558;-78
2023/02/19 07:45:50;;;;;;;4.53;2.65;;;8.40;99.90;;;;;;20857442;28;20021;-79
2023/02/19 07:55:52;;;;;;;3.67;2.27;;;8.40;99.90;;;;;;20829903;28;20033;-79
2023/02/19 08:05:53;;;;;;;3.38;2.17;;;8.30;99.90;;;;;;20825859;28;20037;-79
2023/02/19 08:15:56;;;;;;;5.50;3.20;;;8.40;99.90;;;;;;20827014;28;20033;-77
2023/02/19 08:25:58;;;;;;;3.78;2.15;;;8.20;99.90;;;;;;20821419;28;20032;-80
2023/02/19 08:36:07;;;;;;;3.92;1.95;;;8.20;99.90;;;;;;20865558;28;20036;-77
2023/02/19 08:46:10;;;;;;;4.30;2.97;;;8.10;99.90;;;;;;20887953;28;20060;-78
2023/02/19 08:56:14;;;;;;;6.95;3.33;;;7.90;99.90;;;;;;20812503;28;20289;-77
2023/02/19 09:06:17;;;;;;;9.07;3.33;;;7.90;99.90;;;;;;20804988;28;20030;-78
2023/02/19 09:16:18;;;;;;;6.35;4.00;;;8.00;99.90;;;;;;20800250;28;20045;-79
2023/02/19 09:26:19;;;;;;;4.63;2.60;;;8.10;99.90;;;;;;20797877;28;20079;-79
2023/02/19 09:36:20;;;;;;;3.23;1.90;;;8.20;99.90;;;;;;20756637;28;20408;-78
2023/02/19 09:46:31;;;;;;;6.37;1.73;;;8.30;99.90;;;;;;20859281;28;20036;-79
2023/02/19 09:56:33;;;;;;;1.67;1.20;;;8.80;99.90;;;;;;20813163;28;20083;-79
2023/02/19 10:06:35;;;;;;;1.55;1.08;;;9.30;99.90;;;;;;20840260;28;20523;-78
2023/02/19 10:16:41;;;;;;;1.90;0.90;;;9.40;99.90;;;;;;20821486;28;20381;-78
2023/02/19 10:26:41;;;;;;;1.63;0.80;;;10.00;99.90;;;;;;20786920;28;20026;-78
2023/02/19 10:36:44;;;;;;;0.53;0.53;;;10.50;99.90;;;;;;20837649;28;20036;-77
2023/02/19 10:46:48;;;;;;;0.50;0.45;;;10.60;99.90;;;;;;20829495;28;20034;-77
2023/02/19 10:56:49;;;;;;;1.83;0.50;;;10.40;99.90;;;;;;20783974;28;20030;-77
2023/02/19 11:06:50;;;;;;;0.73;0.50;;;10.10;99.90;;;;;;20792908;28;20068;-78
2023/02/19 11:16:57;;;;;;;0.55;0.47;;;10.20;99.90;;;;;;20796842;28;20296;-77
2023/02/19 11:26:59;;;;;;;0.70;0.43;;;10.30;99.90;;;;;;20791397;28;20022;-78
2023/02/19 11:37:13;;;;;;;0.70;0.65;;;11.30;99.90;;;;;;20777623;28;20088;-77
2023/02/19 11:47:26;;;;;;;1.15;0.57;;;11.10;99.90;;;;;;20784311;28;20029;-77
2023/02/19 11:57:44;;;;;;;1.58;0.90;;;11.00;99.90;;;;;;20845638;28;20032;-77
2023/02/19 12:08:04;;;;;;;1.70;1.08;;;10.40;99.90;;;;;;20838189;28;20492;-76
2023/02/19 12:18:14;;;;;;;3.03;1.17;;;10.50;99.90;;;;;;20822766;28;20040;-79
2023/02/19 12:28:33;;;;;;;2.10;1.25;;;10.50;99.90;;;;;;20810988;28;20030;-76
2023/02/19 12:38:55;;;;;;;3.22;1.25;;;11.00;99.90;;;;;;20790350;28;20041;-76
2023/02/19 12:49:16;;;;;;;2.38;0.95;;;11.00;99.90;;;;;;20757362;28;20041;-77
2023/02/19 12:59:32;;;;;;;2.78;0.93;;;11.20;99.90;;;;;;20794034;28;20032;-80
2023/02/19 13:09:57;;;;;;;4.93;1.10;;;11.30;99.90;;;;;;20832921;28;20251;-77
2023/02/19 13:20:41;;;;;;;1.88;1.00;;;11.20;99.90;;;;;;20801090;28;20068;-78
2023/02/19 13:31:21;;;;;;;3.28;1.17;;;11.00;99.90;;;;;;20830727;28;20029;-77
2023/02/19 13:41:24;;;;;;;2.35;1.13;;;10.90;99.90;;;;;;20816272;28;20045;-77
2023/02/19 13:51:28;;;;;;;4.35;1.30;;;11.20;99.90;;;;;;20775326;28;20489;-77
2023/02/19 14:02:01;;;;;;;8.40;0.80;;;11.30;99.90;;;;;;20826583;28;20026;-79
2023/02/19 14:12:17;;;;;;;2.80;1.30;;;11.00;99.90;;;;;;20729904;28;20396;-79
2023/02/19 14:22:54;;;;;;;2.95;1.00;;;11.30;99.90;;;;;;20764337;28;20051;-79
2023/02/19 14:32:57;;;;;;;2.28;1.00;;;11.20;99.90;;;;;;20786001;28;20404;-78
2023/02/19 14:42:59;;;;;;;2.17;1.23;;;10.90;99.90;;;;;;20784378;28;20033;-79
2023/02/19 14:53:03;;;;;;;2.55;1.30;;;10.70;99.90;;;;;;20790573;28;20400;-79
2023/02/19 15:03:05;;;;;;;3.30;1.08;;;10.70;99.90;;;;;;20829278;28;20071;-79
2023/02/19 15:13:10;;;;;;;2.13;1.05;;;10.60;99.90;;;;;;20833541;28;20085;-79
2023/02/19 15:23:20;;;;;;;3.92;1.15;;;10.50;99.90;;;;;;20811385;28;20086;-79
2023/02/19 15:33:21;;;;;;;2.28;1.35;;;10.40;99.90;;;;;;20879294;28;20040;-78
2023/02/19 15:43:40;;;;;;;3.23;1.47;;;10.30;99.90;;;;;;20914447;28;20037;-79
2023/02/19 15:53:47;;;;;;;2.80;1.60;;;10.20;99.90;;;;;;20901155;28;20175;-79
2023/02/19 16:03:48;;;;;;;3.97;1.45;;;10.40;99.90;;;;;;20837645;28;20488;-78
2023/02/19 16:13:50;;;;;;;5.13;1.53;;;10.70;99.90;;;;;;20837233;28;20128;-78
2023/02/19 16:24:00;;;;;;;3.22;1.50;;;10.20;99.90;;;;;;20835748;28;20573;-79
2023/02/19 16:34:16;;;;;;;6.05;2.28;;;10.00;99.90;;;;;;20831715;28;20033;-80
2023/02/19 16:44:20;;;;;;;2.55;1.42;;;9.80;99.90;;;;;;20833619;28;20033;-78
2023/02/19 16:54:20;;;;;;;4.75;1.85;;;9.70;99.90;;;;;;20834056;28;20041;-76
2023/02/19 17:04:21;;;;;;;3.00;1.47;;;9.60;99.90;;;;;;20833129;28;20026;-79
2023/02/19 17:14:22;;;;;;;4.87;1.73;;;9.50;99.90;;;;;;20832290;28;20400;-79
2023/02/19 17:24:23;;;;;;;8.43;2.03;;;9.50;99.90;;;;;;20831572;28;20496;-80
2023/02/19 17:34:24;;;;;;;6.18;2.20;;;9.40;99.90;;;;;;20830824;28;20472;-79
2023/02/19 17:44:25;;;;;;;4.27;1.73;;;9.30;99.90;;;;;;20804762;28;20032;-78
2023/02/19 17:54:25;;;;;;;7.33;2.57;;;9.20;99.90;;;;;;20788175;28;20037;-78
2023/02/19 18:04:26;;;;;;;4.47;2.33;;;9.10;99.90;;;;;;20797546;28;20396;-78
2023/02/19 18:14:27;;;;;;;8.30;1.87;;;9.10;99.90;;;;;;20801090;28;20029;-78
2023/02/19 18:24:28;;;;;;;2.43;1.80;;;9.10;99.90;;;;;;20801243;28;20030;-78
2023/02/19 18:34:28;;;;;;;6.07;2.13;;;9.00;99.90;;;;;;20796234;28;20029;-78
2023/02/19 18:44:29;;;;;;;4.20;2.20;;;9.00;99.90;;;;;;20781124;28;20034;-78
2023/02/19 18:54:31;;;;;;;7.20;1.80;;;8.90;99.90;;;;;;20796784;28;20017;-78
2023/02/19 19:04:32;;;;;;;;;;;8.90;99.90;;;;;;20801110;28;20037;-79
2023/02/19 19:14:32;;;;;;;5.28;2.30;;;8.90;99.90;;;;;;20795642;28;19918;-79
2023/02/19 19:24:33;;;;;;;4.30;3.30;;;8.80;99.90;;;;;;20801586;28;20021;-79
2023/02/19 19:34:34;;;;;;;3.30;2.23;;;8.80;99.90;;;;;;20804579;28;20037;-78
2023/02/19 19:44:35;;;;;;;4.63;2.40;;;8.70;99.90;;;;;;20780697;28;20557;-79
2023/02/19 19:54:36;;;;;;;8.27;2.20;;;8.70;99.90;;;;;;20795328;28;20025;-78
2023/02/19 20:04:37;;;;;;;5.40;1.93;;;8.70;99.90;;;;;;20798739;28;20708;-79
2023/02/19 20:14:37;;;;;;;5.90;2.10;;;8.60;99.90;;;;;;20807116;28;20071;-80
2023/02/19 20:24:38;;;;;;;8.93;2.43;;;8.50;99.90;;;;;;20804373;28;20442;-80
2023/02/19 20:34:40;;;;;;;11.50;3.10;;;8.40;99.90;;;;;;20798903;28;20029;-81
2023/02/19 20:44:41;;;;;;;4.38;2.40;;;8.20;99.90;;;;;;20841905;28;20025;-81
2023/02/19 20:54:43;;;;;;;4.57;2.78;;;8.10;99.90;;;;;;20799784;28;20037;-80
2023/02/19 21:04:44;;;;;;;9.73;2.80;;;8.10;99.90;;;;;;20802273;28;20076;-80
2023/02/19 21:14:45;;;;;;;5.83;2.63;;;8.00;99.90;;;;;;20799395;28;20030;-79
2023/02/19 21:24:50;;;;;;;;;;;7.80;99.90;;;;;;20798054;28;20053;-80
2023/02/19 21:34:52;;;;;;;4.65;2.50;;;7.90;99.90;;;;;;20800701;28;20359;-79
2023/02/19 21:44:52;;;;;;;8.23;2.58;;;7.90;99.90;;;;;;20795970;28;20029;-79
2023/02/19 21:54:53;;;;;;;7.63;2.60;;;7.70;99.90;;;;;;20797062;28;20026;-81
2023/02/19 22:04:54;;;;;;;8.77;3.27;;;7.60;99.90;;;;;;20797597;28;20026;-80
2023/02/19 22:14:55;;;;;;;13.07;3.13;;;7.60;99.90;;;;;;20761644;28;20033;-79
2023/02/19 22:24:55;;;;;;;7.83;2.40;;;7.50;99.90;;;;;;20855767;28;20029;-80
2023/02/19 22:34:56;;;;;;;8.17;4.00;;;7.40;99.90;;;;;;20828926;28;20030;-79
2023/02/19 22:44:57;;;;;;;11.65;3.72;;;7.30;99.90;;;;;;20793426;28;20037;-79
2023/02/19 22:54:58;;;;;;;5.73;3.07;;;7.10;99.90;;;;;;20825476;28;20515;-79
2023/02/19 23:04:59;;;;;;;5.63;2.63;;;7.20;99.90;;;;;;20829963;28;20029;-79
2023/02/19 23:15:00;;;;;;;5.80;2.87;;;7.10;99.90;;;;;;20824835;28;20021;-80
2023/02/19 23:25:02;;;;;;;6.80;3.40;;;7.10;99.90;;;;;;20824622;28;20342;-79
2023/02/19 23:35:03;;;;;;;7.45;2.60;;;7.00;99.90;;;;;;20837244;28;20029;-79
2023/02/19 23:45:04;;;;;;;9.65;3.13;;;7.00;99.90;;;;;;20898524;28;20543;-78
2023/02/19 23:55:05;;;;;;;10.50;3.47;;;6.60;99.90;;;;;;20884386;28;20037;-79
